KF0ZH Weather Reports


Display with metric or nautical units.
time (UTC)temp
F
wind
direction
speed
MPH
gust
MPH
rain 1hr
in
rain 24hr
in
rain mn
in
humidity
%
barometer
mb
20200227202107 23 320 5.0 14.0 0.00 0.00 0.00 72 1020.6
20200227201607 24 293 0.0 9.0 0.00 0.00 0.00 71 1020.6
20200227200607 24 324 0.0 0.0 0.00 0.00 0.00 71 1020.6
20200227200107 24 271 6.0 10.0 0.00 0.00 0.00 70 1020.6
20200227195607 24 327 0.0 5.0 0.00 0.00 0.00 71 1020.6
20200227195107 24 267 0.0 5.0 0.00 0.00 0.00 71 1020.5
20200227194607 24 323 0.0 0.0 0.00 0.00 0.00 71 1020.4
20200227194108 24 329 0.0 0.0 0.00 0.00 0.00 71 1020.5
20200227193607 23 354 0.0 5.0 0.00 0.00 0.00 72 1020.4
20200227193107 23 274 3.0 9.0 0.00 0.00 0.00 71 1020.6
20200227192607 23 323 0.0 9.0 0.00 0.00 0.00 70 1020.6
20200227192411 23 303 7.0 12.0 0.00 0.00 0.00 70 1020.6
20200227192107 23 329 5.0 10.0 0.00 0.00 0.00 72 1020.5
20200227191607 23 303 7.0 12.0 0.00 0.00 0.00 70 1020.6
20200227191108 23 282 0.0 0.0 0.00 0.00 0.00 71 1020.6
20200227190607 23 282 8.0 9.0 0.00 0.00 0.00 71 1020.7
20200227190107 23 264 0.0 0.0 0.00 0.00 0.00 72 1020.7
20200227185607 22 341 0.0 5.0 0.00 0.00 0.00 73 1020.7
20200227185107 22 319 7.0 9.0 0.00 0.00 0.00 73 1020.8
20200227184607 22 336 0.0 0.0 0.00 0.00 0.00 72 1020.9
20200227184109 23 329 0.0 6.0 0.00 0.00 0.00 72 1020.8
20200227183607 23 277 6.0 8.0 0.00 0.00 0.00 72 1020.9
20200227183107 23 302 0.0 6.0 0.00 0.00 0.00 73 1021.0
20200227182607 23 293 9.0 11.0 0.00 0.00 0.00 73 1021.0
20200227182107 22 288 0.0 7.0 0.00 0.00 0.00 73 1021.0
20200227181607 22 257 0.0 7.0 0.00 0.00 0.00 74 1021.1
20200227181108 22 295 6.0 7.0 0.00 0.00 0.00 75 1021.2
20200227180607 22 316 0.0 8.0 0.00 0.00 0.00 75 1021.3
20200227180107 22 302 0.0 5.0 0.00 0.00 0.00 75 1021.4
20200227175607 22 320 7.0 11.0 0.00 0.00 0.00 75 1021.3
20200227175107 22 323 5.0 6.0 0.00 0.00 0.00 73 1021.4
20200227174607 22 358 0.0 7.0 0.00 0.00 0.00 74 1021.4
20200227173107 22 271 10.0 10.0 0.00 0.00 0.00 74 1021.6
20200227172607 21 298 0.0 0.0 0.00 0.00 0.00 75 1021.7
20200227172107 21 296 8.0 12.0 0.00 0.00 0.00 74 1021.7
20200227171726 22 298 6.0 8.0 0.00 0.00 0.00 75 1021.6
20200227171607 22 298 6.0 8.0 0.00 0.00 0.00 75 1021.6
20200227171141 21 254 0.0 9.0 0.00 0.00 0.00 75 1021.6
20200227171108 21 254 0.0 9.0 0.00 0.00 0.00 75 1021.6
20200227170607 21 355 5.0 8.0 0.00 0.00 0.00 75 1021.5
20200227170107 21 264 0.0 0.0 0.00 0.00 0.00 76 1021.5
20200227165607 21 319 0.0 8.0 0.00 0.00 0.00 75 1021.5
20200227165107 21 281 0.0 0.0 0.00 0.00 0.00 75 1021.6
20200227164607 21 315 6.0 7.0 0.00 0.00 0.00 75 1021.6
20200227164108 21 326 0.0 4.0 0.00 0.00 0.00 75 1021.7
20200227163607 21 358 0.0 0.0 0.00 0.00 0.00 76 1021.6
20200227163108 21 358 0.0 0.0 0.00 0.00 0.00 76 1021.7
20200227162607 21 358 0.0 7.0 0.00 0.00 0.00 76 1021.7
20200227162107 21 348 0.0 0.0 0.00 0.00 0.00 77 1021.7
20200227161640 21 348 0.0 0.0 0.00 0.00 0.00 76 1021.7
20200227161607 21 348 0.0 0.0 0.00 0.00 0.00 76 1021.7
20200227161108 21 348 0.0 0.0 0.00 0.00 0.00 77 1021.6
20200227160607 21 348 0.0 0.0 0.00 0.00 0.00 78 1021.5
20200227160109 20 348 0.0 0.0 0.00 0.00 0.00 77 1021.6
20200227155640 20 348 0.0 0.0 0.00 0.00 0.00 79 1021.5
20200227155609 20 348 0.0 0.0 0.00 0.00 0.00 79 1021.5
20200227155107 20 348 0.0 0.0 0.00 0.00 0.00 80 1021.5
20200227154607 20 348 0.0 0.0 0.00 0.00 0.00 81 1021.5
20200227154157 20 348 0.0 0.0 0.00 0.00 0.00 82 1021.5
20200227154108 20 348 0.0 0.0 0.00 0.00 0.00 82 1021.5
20200227153607 19 243 0.0 0.0 0.00 0.00 0.00 86 1021.5
20200227153140 19 243 0.0 0.0 0.00 0.00 0.00 85 1021.5
20200227153107 19 243 0.0 0.0 0.00 0.00 0.00 85 1021.5
20200227152639 19 243 0.0 0.0 0.00 0.00 0.00 89 1021.5
20200227152607 19 243 0.0 0.0 0.00 0.00 0.00 89 1021.5
20200227152107 18 243 0.0 0.0 0.00 0.00 0.00 90 1021.5
20200227151607 18 243 0.0 0.0 0.00 0.00 0.00 92 1021.4
20200227151109 18 243 0.0 0.0 0.00 0.00 0.00 92 1021.4
20200227150607 17 243 0.0 0.0 0.00 0.00 0.00 93 1021.4
20200227150107 17 243 0.0 0.0 0.00 0.00 0.00 92 1021.4
20200227145607 17 243 0.0 0.0 0.00 0.00 0.00 95 1021.3
20200227145107 16 243 0.0 0.0 0.00 0.00 0.00 95 1021.3
20200227144608 16 243 0.0 0.0 0.00 0.00 0.00 96 1021.2
20200227144108 16 243 0.0 0.0 0.00 0.00 0.00 98 1021.2
20200227143607 15 243 0.0 0.0 0.00 0.00 0.00 98 1021.3
20200227143107 15 243 0.0 0.0 0.00 0.00 0.00 98 1021.2
20200227142607 15 243 0.0 0.0 0.00 0.00 0.00 99 1021.2
20200227142107 14 243 0.0 0.0 0.00 0.00 0.00 99 1021.1
20200227141610 14 243 0.0 0.0 0.00 0.00 0.00 99 1021.1
20200227141108 13 243 0.0 0.0 0.00 0.00 0.00 99 1021.1
20200227140609 13 243 0.0 0.0 0.00 0.00 0.00 99 1021.1
20200227135607 12 243 0.0 0.0 0.00 0.00 0.00 99 1021.0
20200227135107 12 243 0.0 0.0 0.00 0.00 0.00 99 1020.8
20200227134612 12 243 0.0 0.0 0.00 0.00 0.00 99 1020.9
20200227134108 11 243 0.0 0.0 0.00 0.00 0.00 99 1021.0
20200227133609 11 243 0.0 0.0 0.00 0.00 0.00 99 1020.8
20200227133108 11 243 0.0 0.0 0.00 0.00 0.00 99 1020.7
20200227132607 11 243 0.0 0.0 0.00 0.00 0.00 99 1020.6
20200227132107 11 243 0.0 0.0 0.00 0.00 0.00 99 1020.6
20200227131607 10 243 0.0 0.0 0.00 0.00 0.00 99 1020.5
20200227131108 10 243 0.0 0.0 0.00 0.00 0.00 99 1020.4
20200227130607 11 243 0.0 0.0 0.00 0.00 0.00 99 1020.3
20200227130107 11 243 0.0 0.0 0.00 0.00 0.00 99 1020.3
20200227125607 10 243 0.0 0.0 0.00 0.00 0.00 99 1020.4
20200227125107 11 243 0.0 0.0 0.00 0.00 0.00 99 1020.4
20200227124607 11 243 0.0 0.0 0.00 0.00 0.00 99 1020.4
20200227124108 12 243 0.0 0.0 0.00 0.00 0.00 99 1020.5
20200227123607 12 243 0.0 0.0 0.00 0.00 0.00 99 1020.5
20200227123112 12 243 0.0 0.0 0.00 0.00 0.00 99 1020.5
20200227122609 12 243 0.0 0.0 0.00 0.00 0.00 99 1020.6
20200227122108 12 243 0.0 0.0 0.00 0.00 0.00 99 1020.7
20200227121608 12 243 0.0 0.0 0.00 0.00 0.00 99 1020.8
20200227121108 12 243 0.0 0.0 0.00 0.00 0.00 99 1020.8
20200227120607 12 243 0.0 0.0 0.00 0.00 0.00 99 1020.9
20200227120107 12 243 0.0 0.0 0.00 0.00 0.00 99 1021.0
20200227115107 13 243 0.0 0.0 0.00 0.00 0.00 99 1021.1
20200227114607 13 243 0.0 0.0 0.00 0.00 0.00 99 1021.1
20200227113607 13 243 0.0 0.0 0.00 0.00 0.00 99 1021.2
20200227112607 13 243 0.0 0.0 0.00 0.00 0.00 99 1021.2
20200227112107 14 243 0.0 0.0 0.00 0.00 0.00 99 1021.2
20200227111607 14 243 0.0 0.0 0.00 0.00 0.00 99 1021.2
20200227111109 14 243 0.0 0.0 0.00 0.00 0.00 99 1021.3
20200227110607 14 243 0.0 0.0 0.00 0.00 0.00 99 1021.2
20200227110108 14 243 0.0 0.0 0.00 0.00 0.00 99 1021.2
20200227105607 14 243 0.0 0.0 0.00 0.00 0.00 99 1021.1
20200227105112 14 243 0.0 0.0 0.00 0.00 0.00 99 1021.2
20200227104607 14 243 0.0 0.0 0.00 0.00 0.00 99 1021.2
20200227104108 14 243 0.0 0.0 0.00 0.00 0.00 99 1021.2
20200227103609 14 243 0.0 0.0 0.00 0.00 0.00 99 1021.2
20200227103107 14 243 0.0 0.0 0.00 0.00 0.00 99 1021.3
20200227102607 14 243 0.0 0.0 0.00 0.00 0.00 99 1021.3
20200227102109 14 243 0.0 0.0 0.00 0.00 0.00 99 1021.4
20200227101607 14 243 0.0 0.0 0.00 0.00 0.00 99 1021.4
20200227101108 14 243 0.0 0.0 0.00 0.00 0.00 99 1021.3
20200227100607 14 243 0.0 0.0 0.00 0.00 0.00 99 1021.4
20200227100107 14 243 0.0 0.0 0.00 0.00 0.00 99 1021.4
20200227095607 14 243 0.0 0.0 0.00 0.00 0.00 99 1021.3
20200227095107 14 243 0.0 0.0 0.00 0.00 0.00 99 1021.4
20200227094607 14 281 0.0 0.0 0.00 0.00 0.00 99 1021.4
20200227094108 14 281 0.0 0.0 0.00 0.00 0.00 99 1021.4
20200227093607 14 281 0.0 0.0 0.00 0.00 0.00 99 1021.4
20200227093107 14 281 0.0 0.0 0.00 0.00 0.00 99 1021.3
20200227092607 14 281 0.0 0.0 0.00 0.00 0.00 99 1021.3
20200227092107 14 281 0.0 0.0 0.00 0.00 0.00 99 1021.4
20200227091607 14 281 0.0 0.0 0.00 0.00 0.00 99 1021.4
20200227091108 14 281 0.0 0.0 0.00 0.00 0.00 99 1021.4
20200227090607 14 281 0.0 0.0 0.00 0.00 0.00 99 1021.4
20200227090110 14 281 0.0 0.0 0.00 0.00 0.00 99 1021.5
20200227085607 14 281 0.0 0.0 0.00 0.00 0.00 99 1021.4
20200227085111 14 281 0.0 0.0 0.00 0.00 0.00 99 1021.3
20200227084607 15 281 0.0 0.0 0.00 0.00 0.00 99 1021.3
20200227084110 15 281 0.0 0.0 0.00 0.00 0.00 99 1021.4
20200227083607 15 281 0.0 0.0 0.00 0.00 0.00 99 1021.3
20200227082607 15 281 0.0 0.0 0.00 0.00 0.00 99 1021.4
20200227082107 15 281 0.0 0.0 0.00 0.00 0.00 99 1021.5
20200227081607 15 281 0.0 0.0 0.00 0.00 0.00 99 1021.5
20200227081108 15 281 0.0 0.0 0.00 0.00 0.00 98 1021.5
20200227080607 15 281 0.0 0.0 0.00 0.00 0.00 98 1021.5
20200227080108 16 281 0.0 0.0 0.00 0.00 0.00 98 1021.5
20200227075607 16 281 0.0 0.0 0.00 0.00 0.00 98 1021.5
20200227075108 16 281 0.0 0.0 0.00 0.00 0.00 97 1021.5
20200227074607 16 281 0.0 0.0 0.00 0.00 0.00 97 1021.6
20200227074108 16 281 0.0 0.0 0.00 0.00 0.00 97 1021.6
20200227073607 16 281 0.0 0.0 0.00 0.00 0.00 97 1021.6
20200227073107 17 281 0.0 0.0 0.00 0.00 0.00 97 1021.6
20200227072607 17 281 0.0 0.0 0.00 0.00 0.00 97 1021.5
20200227072107 17 281 0.0 0.0 0.00 0.00 0.00 97 1021.5
20200227071607 17 281 0.0 0.0 0.00 0.00 0.00 97 1021.6
20200227071108 17 281 0.0 0.0 0.00 0.00 0.00 97 1021.6
20200227070607 17 281 0.0 0.0 0.00 0.00 0.00 97 1021.6
20200227070107 17 281 0.0 0.0 0.00 0.00 0.00 97 1021.7
20200227065607 18 281 0.0 0.0 0.00 0.00 0.00 96 1021.6
20200227065107 18 281 0.0 0.0 0.00 0.00 0.00 97 1021.6
20200227064610 18 262 0.0 0.0 0.00 0.00 0.00 97 1021.7
20200227064108 18 262 0.0 0.0 0.00 0.00 0.00 97 1021.7
20200227063607 18 262 5.0 5.0 0.00 0.00 0.00 96 1021.8
20200227063107 18 265 0.0 0.0 0.00 0.00 0.00 97 1021.8
20200227062607 19 265 0.0 0.0 0.00 0.00 0.00 96 1021.8
20200227062107 19 264 3.0 3.0 0.00 0.00 0.00 97 1021.8
20200227061607 19 322 0.0 0.0 0.00 0.00 0.00 97 1021.8
20200227061108 19 322 0.0 0.0 0.00 0.00 0.00 97 1021.9
20200227060607 19 322 0.0 0.0 0.00 0.00 0.00 97 1022.1
20200227060107 19 322 0.0 0.0 0.00 0.00 0.00 97 1022.1
20200227055607 19 213 0.0 0.0 0.00 0.00 0.00 97 1022.1
20200227054607 19 236 0.0 4.0 0.00 0.00 0.00 97 1022.1
20200227054108 19 286 0.0 0.0 0.00 0.00 0.00 96 1022.2
20200227053607 19 286 0.0 0.0 0.00 0.00 0.00 96 1022.2
20200227052607 20 305 0.0 0.0 0.00 0.00 0.00 96 1022.3
20200227052107 20 305 0.0 0.0 0.00 0.00 0.00 96 1022.4
20200227051607 20 305 0.0 0.0 0.00 0.00 0.00 96 1022.4
20200227051107 20 305 0.0 0.0 0.00 0.00 0.00 96 1022.5
20200227050610 20 305 0.0 0.0 0.00 0.00 0.00 96 1022.5
20200227050107 20 305 0.0 0.0 0.00 0.00 0.00 96 1022.6
20200227045607 20 305 0.0 0.0 0.00 0.00 0.00 96 1022.6
20200227045107 21 305 0.0 0.0 0.00 0.00 0.00 96 1022.6
20200227044607 21 305 0.0 0.0 0.00 0.00 0.00 95 1022.6
20200227044107 21 305 0.0 0.0 0.00 0.00 0.00 95 1022.7
20200227043607 21 305 0.0 0.0 0.00 0.00 0.00 95 1022.7
20200227043107 21 305 0.0 0.0 0.00 0.00 0.00 95 1022.7
20200227042607 21 305 0.0 0.0 0.00 0.00 0.00 95 1022.7
20200227042108 21 241 0.0 0.0 0.00 0.00 0.00 95 1022.7
20200227041607 21 241 0.0 7.0 0.00 0.00 0.00 95 1022.7
20200227041107 21 267 0.0 6.0 0.00 0.00 0.00 95 1022.8
20200227040607 21 268 0.0 0.0 0.00 0.00 0.00 95 1022.8
20200227040107 21 281 0.0 0.0 0.00 0.00 0.00 95 1022.8
20200227035607 21 281 0.0 0.0 0.00 0.00 0.00 95 1022.9
20200227035107 21 265 0.0 0.0 0.00 0.00 0.00 95 1022.9
20200227034607 21 268 0.0 2.0 0.00 0.00 0.00 94 1022.9
20200227034107 22 275 3.0 8.0 0.00 0.00 0.00 94 1022.9
20200227033607 22 272 4.0 11.0 0.00 0.00 0.00 94 1022.9
20200227033108 22 279 7.0 7.0 0.00 0.00 0.00 93 1022.9
20200227032607 22 270 0.0 0.0 0.00 0.00 0.00 93 1022.8
20200227032107 22 257 6.0 7.0 0.00 0.00 0.00 93 1022.8
20200227031607 22 288 0.0 5.0 0.00 0.00 0.00 92 1022.9
20200227031107 22 316 0.0 7.0 0.00 0.00 0.00 92 1022.9
20200227030607 22 277 0.0 0.0 0.00 0.00 0.00 92 1022.9
20200227030107 22 262 5.0 6.0 0.00 0.00 0.00 92 1022.9
20200227025607 22 241 2.0 2.0 0.00 0.00 0.00 92 1022.8
20200227025107 22 248 0.0 0.0 0.00 0.00 0.00 91 1022.8
20200227024607 23 236 0.0 0.0 0.00 0.00 0.00 91 1022.8
20200227024107 23 272 5.0 9.0 0.00 0.00 0.00 90 1022.8
20200227023607 23 225 0.0 5.0 0.00 0.00 0.00 90 1022.8
20200227023108 23 201 0.0 0.0 0.00 0.00 0.00 89 1022.7
20200227022108 23 233 0.0 0.0 0.00 0.00 0.00 89 1022.8
20200227021607 23 261 0.0 0.0 0.00 0.00 0.00 89 1022.9
20200227021110 23 274 0.0 2.0 0.00 0.00 0.00 89 1022.9
20200227020607 23 275 0.0 0.0 0.00 0.00 0.00 89 1023.0
20200227020107 23 293 0.0 0.0 0.00 0.00 0.00 89 1023.0
20200227015610 23 264 2.0 7.0 0.00 0.00 0.00 89 1023.0
20200227015145 23 261 3.0 5.0 0.00 0.00 0.00 89 1023.1
20200227015107 23 261 3.0 5.0 0.00 0.00 0.00 89 1023.1
20200227014610 24 215 0.0 0.0 0.00 0.00 0.00 89 1023.2
20200227014108 23 261 7.0 9.0 0.00 0.00 0.00 89 1023.2
20200227013607 24 243 6.0 7.0 0.00 0.00 0.00 89 1023.3
20200227013107 24 260 3.0 4.0 0.00 0.00 0.00 89 1023.3
20200227012607 24 255 0.0 2.0 0.00 0.00 0.00 89 1023.3
20200227012107 24 258 0.0 0.0 0.00 0.00 0.00 89 1023.3
20200227011607 24 255 5.0 8.0 0.00 0.00 0.00 88 1023.3
20200227011108 24 206 0.0 0.0 0.00 0.00 0.00 87 1023.3
20200227010608 24 271 0.0 0.0 0.00 0.00 0.00 87 1023.3
20200227010107 24 250 0.0 6.0 0.00 0.00 0.00 87 1023.4
20200227005607 25 239 3.0 3.0 0.00 0.00 0.00 86 1023.4
20200227005107 25 272 4.0 6.0 0.00 0.00 0.00 85 1023.4
20200227004607 25 305 0.0 0.0 0.00 0.00 0.00 83 1023.4
20200227004107 25 265 0.0 5.0 0.00 0.00 0.00 81 1023.4
20200227003607 25 296 0.0 0.0 0.00 0.00 0.00 80 1023.4
20200227003107 25 277 0.0 3.0 0.00 0.00 0.00 79 1023.4
20200227002608 25 275 4.0 6.0 0.00 0.00 0.00 77 1023.4
20200227001108 25 282 0.0 6.0 0.00 0.00 0.00 76 1023.4
20200227000607 26 286 0.0 0.0 0.00 0.00 0.00 76 1023.5
20200227000107 26 270 4.0 4.0 0.00 0.00 0.00 76 1023.5
20200226235607 26 302 0.0 6.0 0.00 0.00 0.00 77 1023.6
20200226235107 26 265 5.0 6.0 0.00 0.00 0.00 76 1023.6
20200226234609 26 265 0.0 0.0 0.00 0.00 0.00 76 1023.6
20200226234108 26 253 3.0 9.0 0.00 0.00 0.00 76 1023.6
20200226233108 26 302 0.0 0.0 0.00 0.00 0.00 76 1023.6
20200226232607 26 216 0.0 0.0 0.00 0.00 0.00 76 1023.7
20200226232107 26 310 0.0 0.0 0.00 0.00 0.00 75 1023.7
20200226231607 26 260 6.0 6.0 0.00 0.00 0.00 75 1023.7
20200226230607 27 271 0.0 7.0 0.00 0.00 0.00 74 1023.8
20200226230107 27 241 0.0 0.0 0.00 0.00 0.00 74 1023.8
20200226224607 27 226 3.0 4.0 0.00 0.00 0.00 73 1023.9
20200226224108 27 289 0.0 0.0 0.00 0.00 0.00 73 1023.8
20200226223607 27 289 0.0 0.0 0.00 0.00 0.00 75 1023.9
20200226223107 27 270 0.0 7.0 0.00 0.00 0.00 74 1023.9
20200226222607 28 289 0.0 0.0 0.00 0.00 0.00 73 1023.9
20200226221608 28 289 0.0 4.0 0.00 0.00 0.00 73 1023.8
20200226221107 28 309 3.0 9.0 0.00 0.00 0.00 72 1023.9
20200226220607 28 293 0.0 10.0 0.00 0.00 0.00 71 1023.9
20200226220107 28 265 0.0 9.0 0.00 0.00 0.00 71 1023.9
20200226215607 28 258 0.0 0.0 0.00 0.00 0.00 70 1023.9
20200226214607 28 262 5.0 10.0 0.00 0.00 0.00 69 1024.0
20200226214107 28 262 5.0 7.0 0.00 0.00 0.00 70 1024.0
20200226213607 28 222 0.0 7.0 0.00 0.00 0.00 69 1024.0
20200226213107 29 265 11.0 12.0 0.00 0.00 0.00 69 1024.0
20200226212607 29 230 0.0 8.0 0.00 0.00 0.00 68 1024.0
20200226212107 29 286 5.0 6.0 0.00 0.00 0.00 68 1024.1
20200226211607 29 271 0.0 9.0 0.00 0.00 0.00 68 1024.1
20200226211108 29 260 0.0 0.0 0.00 0.00 0.00 67 1024.1
20200226210607 30 208 0.0 0.0 0.00 0.00 0.00 66 1024.1
20200226210147 29 291 0.0 0.0 0.00 0.00 0.00 65 1024.2
20200226210107 29 291 0.0 0.0 0.00 0.00 0.00 65 1024.2
20200226205637 29 291 0.0 0.0 0.00 0.00 0.00 64 1024.2
20200226205607 29 291 0.0 0.0 0.00 0.00 0.00 64 1024.2
20200226205107 29 336 0.0 7.0 0.00 0.00 0.00 64 1024.3
20200226204608 29 300 0.0 0.0 0.00 0.00 0.00 64 1024.3
20200226204107 29 317 0.0 2.0 0.00 0.00 0.00 65 1024.3
20200226203608 29 248 0.0 2.0 0.00 0.00 0.00 65 1024.4
20200226203107 29 271 0.0 0.0 0.00 0.00 0.00 65 1024.4
20200226202607 29 313 0.0 0.0 0.00 0.00 0.00 64 1024.4